Time;durP1;ratioP1;P1;durP2;ratioP2;P2;SDS_P1;SDS_P2;PMS_P1;PMS_P2;Temp;Humidity;BMP_temperature;BMP_pressure;BME280_temperature;BME280_humidity;BME280_pressure;Samples;Min_cycle;Max_cycle;Signal;HPM_P1;HPM_P2
2021/03/11 00:00:10;;;;;;;19.57;15.30;;;9.20;99.60;;;;;;5095835;28;20643;-72
2021/03/11 00:02:36;;;;;;;19.70;15.17;;;9.10;99.50;;;;;;5095814;28;20180;-72
2021/03/11 00:05:04;;;;;;;18.50;15.20;;;9.10;99.70;;;;;;5081895;28;20431;-72
2021/03/11 00:07:30;;;;;;;19.67;14.63;;;9.10;99.70;;;;;;5076886;28;20415;-72
2021/03/11 00:09:56;;;;;;;19.37;15.07;;;9.10;99.40;;;;;;5074780;28;20499;-72
2021/03/11 00:12:21;;;;;;;20.73;15.50;;;9.20;99.50;;;;;;5075283;28;20290;-72
2021/03/11 00:14:47;;;;;;;21.83;16.30;;;9.20;99.40;;;;;;5088146;28;20233;-72
2021/03/11 00:17:13;;;;;;;21.40;15.50;;;9.20;99.30;;;;;;5095703;28;20183;-72
2021/03/11 00:19:39;;;;;;;19.33;15.00;;;9.30;99.10;;;;;;5073306;28;20197;-72
2021/03/11 00:22:06;;;;;;;16.40;13.90;;;9.30;99.10;;;;;;5073760;28;20407;-72
2021/03/11 00:24:32;;;;;;;17.57;14.57;;;9.30;99.10;;;;;;5075641;28;20190;-72
2021/03/11 00:26:58;;;;;;;18.77;15.10;;;9.30;99.00;;;;;;5074217;28;20391;-71
2021/03/11 00:29:24;;;;;;;18.67;15.03;;;9.30;99.00;;;;;;5074816;28;20660;-72
2021/03/11 00:31:50;;;;;;;18.67;14.53;;;9.30;99.20;;;;;;5074112;28;20514;-72
2021/03/11 00:34:16;;;;;;;19.93;16.10;;;9.30;99.30;;;;;;5075285;28;20395;-72
2021/03/11 00:36:41;;;;;;;20.13;15.50;;;9.10;99.10;;;;;;5056079;28;20180;-72
2021/03/11 00:39:07;;;;;;;21.00;15.77;;;9.10;99.70;;;;;;5076822;28;20514;-72
2021/03/11 00:41:34;;;;;;;18.90;15.30;;;9.10;99.90;;;;;;5083232;28;20455;-72
2021/03/11 00:44:00;;;;;;;18.00;14.73;;;9.10;99.80;;;;;;5077027;28;20256;-72
2021/03/11 00:46:26;;;;;;;17.40;14.60;;;9.20;99.70;;;;;;5074662;28;20499;-72
2021/03/11 00:48:52;;;;;;;20.17;15.90;;;9.20;99.80;;;;;;5078384;28;20185;-72
2021/03/11 00:51:17;;;;;;;19.83;15.37;;;9.20;99.40;;;;;;5081380;28;20198;-72
2021/03/11 00:53:43;;;;;;;23.10;15.57;;;9.20;99.30;;;;;;5073521;28;20165;-72
2021/03/11 00:56:09;;;;;;;20.50;15.60;;;9.20;99.30;;;;;;5074175;28;20216;-72
2021/03/11 00:58:34;;;;;;;17.20;13.83;;;9.20;99.60;;;;;;5074594;28;20187;-72
2021/03/11 01:01:00;;;;;;;16.77;14.43;;;9.20;99.60;;;;;;5075041;28;20181;-72
2021/03/11 01:03:26;;;;;;;20.53;14.77;;;9.10;99.80;;;;;;5092964;28;20192;-71
2021/03/11 01:05:52;;;;;;;19.33;13.70;;;9.20;99.90;;;;;;5073462;28;20176;-71
2021/03/11 01:08:18;;;;;;;17.53;13.23;;;9.20;99.70;;;;;;5081512;28;20640;-72
2021/03/11 01:10:44;;;;;;;20.03;14.93;;;9.20;99.90;;;;;;5077513;28;20550;-72
2021/03/11 01:13:09;;;;;;;16.70;13.80;;;9.20;99.90;;;;;;5084045;28;20183;-71
2021/03/11 01:15:40;;;;;;;18.80;14.27;;;9.20;99.90;;;;;;5087957;28;20882;-71
2021/03/11 01:18:07;;;;;;;16.30;13.97;;;9.00;99.90;;;;;;5078660;28;20275;-71
2021/03/11 01:20:33;;;;;;;19.80;15.20;;;9.00;99.90;;;;;;5073643;28;20447;-71
2021/03/11 01:22:59;;;;;;;18.10;15.13;;;9.00;99.90;;;;;;5080603;28;20417;-71
2021/03/11 01:25:25;;;;;;;19.30;15.43;;;9.20;99.90;;;;;;5085424;28;20414;-71
2021/03/11 01:27:50;;;;;;;18.80;15.13;;;9.20;99.90;;;;;;5083467;28;20621;-71
2021/03/11 01:30:17;;;;;;;19.10;15.77;;;8.90;99.90;;;;;;5084102;28;20172;-71
2021/03/11 01:32:42;;;;;;;18.77;14.27;;;8.80;99.90;;;;;;5089353;28;20259;-71
2021/03/11 01:35:09;;;;;;;18.60;13.93;;;8.80;99.90;;;;;;5082055;28;20485;-71
2021/03/11 01:37:35;;;;;;;20.77;14.43;;;8.90;99.90;;;;;;5082085;28;20176;-71
2021/03/11 01:40:02;;;;;;;19.13;14.50;;;8.90;99.90;;;;;;5082168;28;20465;-72
2021/03/11 01:42:28;;;;;;;17.70;14.73;;;9.00;99.90;;;;;;5072191;28;20268;-71
2021/03/11 01:44:54;;;;;;;17.30;14.03;;;9.10;99.90;;;;;;5084073;28;20392;-72
2021/03/11 01:47:19;;;;;;;15.93;14.07;;;9.10;99.90;;;;;;5083402;28;20386;-71
2021/03/11 01:49:45;;;;;;;18.53;14.13;;;8.90;99.90;;;;;;5089705;28;20187;-72
2021/03/11 01:52:11;;;;;;;17.80;14.30;;;9.00;99.90;;;;;;5093706;28;20168;-72
2021/03/11 01:54:38;;;;;;;17.60;14.50;;;9.10;99.90;;;;;;5093485;28;20167;-71
2021/03/11 01:57:04;;;;;;;16.93;13.03;;;9.10;99.90;;;;;;5093184;28;20405;-71
2021/03/11 01:59:30;;;;;;;18.50;14.47;;;9.10;99.90;;;;;;5093472;28;20446;-71
2021/03/11 02:01:57;;;;;;;15.80;14.10;;;9.10;99.90;;;;;;5092537;28;20413;-71
2021/03/11 02:04:23;;;;;;;16.10;13.13;;;9.00;99.90;;;;;;5092800;28;20205;-71
2021/03/11 02:06:52;;;;;;;14.17;12.33;;;9.00;99.90;;;;;;5091611;28;20391;-71
2021/03/11 02:09:19;;;;;;;16.80;13.70;;;9.10;99.90;;;;;;5093371;28;20172;-71
2021/03/11 02:12:06;;;;;;;18.33;12.30;;;9.10;99.90;;;;;;5076582;28;20415;-71
2021/03/11 02:15:10;;;;;;;16.23;12.73;;;9.00;99.90;;;;;;5083888;28;20459;-72
2021/03/11 02:17:51;;;;;;;17.10;13.30;;;9.00;99.90;;;;;;5093475;28;20409;-71
2021/03/11 02:21:02;;;;;;;16.97;13.07;;;9.00;99.90;;;;;;5093136;28;20530;-71
2021/03/11 02:24:05;;;;;;;16.50;13.57;;;9.00;99.90;;;;;;5082834;28;20510;-71
2021/03/11 02:26:31;;;;;;;17.17;13.40;;;9.00;99.90;;;;;;5072884;28;20413;-71
2021/03/11 02:29:11;;;;;;;15.03;12.47;;;8.90;99.90;;;;;;5072796;28;20423;-71
2021/03/11 02:31:39;;;;;;;17.53;12.90;;;8.90;99.90;;;;;;5072629;28;20195;-71
2021/03/11 02:34:21;;;;;;;16.03;12.40;;;8.90;99.90;;;;;;5073772;28;20419;-71
2021/03/11 02:36:51;;;;;;;15.50;11.97;;;8.80;99.90;;;;;;5087536;28;20413;-72
2021/03/11 02:39:20;;;;;;;14.30;11.93;;;8.90;99.90;;;;;;5082936;28;20495;-71
2021/03/11 02:41:47;;;;;;;15.70;12.53;;;8.90;99.90;;;;;;5091698;28;20563;-71
2021/03/11 02:44:14;;;;;;;13.73;11.80;;;9.10;99.90;;;;;;5088561;28;20523;-72
2021/03/11 02:46:40;;;;;;;14.80;12.17;;;9.00;99.90;;;;;;5081809;28;20394;-72
2021/03/11 02:49:07;;;;;;;14.13;12.40;;;9.00;99.90;;;;;;5072911;28;20489;-72
2021/03/11 02:51:33;;;;;;;13.10;11.23;;;8.90;99.90;;;;;;5078122;28;20450;-71
2021/03/11 02:53:59;;;;;;;13.40;10.83;;;8.90;99.90;;;;;;5071618;28;20437;-71
2021/03/11 02:56:25;;;;;;;14.37;11.43;;;8.80;99.90;;;;;;5072364;28;20430;-72
2021/03/11 02:58:53;;;;;;;12.67;11.17;;;8.90;99.90;;;;;;5084511;28;20453;-71
2021/03/11 03:01:21;;;;;;;15.70;11.57;;;8.90;99.90;;;;;;5074384;28;20416;-72
2021/03/11 03:03:48;;;;;;;11.20;9.97;;;8.90;99.90;;;;;;5091636;28;20728;-72
2021/03/11 03:06:16;;;;;;;12.60;10.87;;;9.00;99.90;;;;;;5092180;28;20459;-72
2021/03/11 03:08:43;;;;;;;12.20;10.80;;;9.20;99.90;;;;;;5091627;28;20395;-72
2021/03/11 03:11:11;;;;;;;11.40;10.00;;;9.10;99.90;;;;;;5088902;28;20722;-72
2021/03/11 03:13:40;;;;;;;11.40;9.33;;;9.20;99.90;;;;;;5076641;28;20412;-72
2021/03/11 03:16:06;;;;;;;10.83;9.83;;;9.20;99.90;;;;;;5092073;28;20395;-71
2021/03/11 03:18:33;;;;;;;11.33;10.13;;;9.20;99.90;;;;;;5080446;28;20422;-72
2021/03/11 03:21:03;;;;;;;11.13;9.60;;;9.20;99.90;;;;;;5071271;28;20399;-72
2021/03/11 03:23:29;;;;;;;12.13;10.60;;;9.30;99.90;;;;;;5072124;28;20426;-72
2021/03/11 03:25:55;;;;;;;11.53;9.90;;;9.40;99.90;;;;;;5053173;28;20873;-72
2021/03/11 03:28:21;;;;;;;11.87;10.40;;;9.40;99.90;;;;;;5073117;28;20457;-72
2021/03/11 03:30:47;;;;;;;10.57;9.43;;;9.40;99.90;;;;;;5071243;28;20173;-72
2021/03/11 03:33:13;;;;;;;10.47;9.10;;;9.40;99.90;;;;;;5071980;28;20180;-72
2021/03/11 03:35:40;;;;;;;9.53;8.53;;;9.40;99.90;;;;;;5071819;28;20492;-72
2021/03/11 03:38:07;;;;;;;11.03;9.67;;;9.50;99.90;;;;;;5078289;28;20409;-72
2021/03/11 03:40:32;;;;;;;10.23;9.07;;;9.50;99.90;;;;;;5091984;28;20474;-72
2021/03/11 03:43:13;;;;;;;9.60;8.03;;;9.50;99.90;;;;;;5091313;28;20505;-71
2021/03/11 03:45:47;;;;;;;8.80;7.97;;;9.60;99.90;;;;;;5076588;28;20172;-71
2021/03/11 03:48:17;;;;;;;9.13;8.13;;;9.50;99.90;;;;;;5091871;28;20428;-72
2021/03/11 03:50:46;;;;;;;10.13;8.23;;;9.50;99.90;;;;;;5090922;28;20445;-71
2021/03/11 03:53:24;;;;;;;8.73;7.93;;;9.40;99.90;;;;;;5091203;28;20801;-72
2021/03/11 03:55:56;;;;;;;8.00;7.20;;;9.40;99.90;;;;;;5090946;28;20447;-72
2021/03/11 03:58:23;;;;;;;8.30;7.47;;;9.50;99.90;;;;;;5092000;28;20395;-72
2021/03/11 04:00:49;;;;;;;8.43;7.63;;;9.40;99.90;;;;;;5056318;28;20533;-72
2021/03/11 04:03:15;;;;;;;7.77;6.97;;;9.50;99.90;;;;;;5091964;28;20398;-72
2021/03/11 04:05:42;;;;;;;7.53;6.87;;;9.40;99.90;;;;;;5091187;28;20395;-72
2021/03/11 04:08:08;;;;;;;6.60;6.00;;;9.40;99.90;;;;;;5091614;28;20432;-72
2021/03/11 04:10:35;;;;;;;6.40;5.80;;;9.40;99.90;;;;;;5091518;28;20957;-72
2021/03/11 04:13:01;;;;;;;6.53;5.93;;;9.40;99.90;;;;;;5077617;28;20560;-72
2021/03/11 04:15:27;;;;;;;7.30;6.70;;;9.40;99.90;;;;;;5089864;28;20497;-72
2021/03/11 04:17:53;;;;;;;6.73;6.13;;;9.40;99.90;;;;;;5072819;28;20377;-72
2021/03/11 04:20:20;;;;;;;7.40;6.60;;;9.30;99.90;;;;;;5091667;28;20686;-72
2021/03/11 04:22:46;;;;;;;6.67;6.07;;;9.40;99.90;;;;;;5090888;28;20458;-72
2021/03/11 04:25:12;;;;;;;6.17;5.77;;;9.40;99.90;;;;;;5091783;28;20414;-72
2021/03/11 04:27:38;;;;;;;7.33;6.83;;;9.40;99.90;;;;;;5083869;28;20418;-73
2021/03/11 04:30:06;;;;;;;6.37;5.77;;;9.40;99.90;;;;;;5084770;28;20410;-72
2021/03/11 04:32:35;;;;;;;5.63;5.13;;;9.40;99.90;;;;;;5095028;28;20406;-72
2021/03/11 04:35:01;;;;;;;7.07;5.70;;;9.30;99.90;;;;;;5094342;28;20479;-72
2021/03/11 04:37:27;;;;;;;5.80;5.40;;;9.30;99.90;;;;;;5095089;28;20402;-72
2021/03/11 04:39:53;;;;;;;6.13;5.67;;;9.30;99.90;;;;;;5075998;28;20230;-72
2021/03/11 04:42:19;;;;;;;6.20;5.50;;;9.30;99.90;;;;;;5095020;28;20414;-72
2021/03/11 04:44:45;;;;;;;6.27;5.80;;;9.30;99.90;;;;;;5086697;28;20474;-73
2021/03/11 04:47:12;;;;;;;7.20;6.60;;;9.40;99.90;;;;;;5074462;28;20407;-72
2021/03/11 04:49:39;;;;;;;6.30;5.77;;;9.40;99.90;;;;;;5074597;28;20407;-72
2021/03/11 04:52:07;;;;;;;5.93;5.43;;;9.40;99.90;;;;;;5074285;28;20400;-72
2021/03/11 04:54:33;;;;;;;6.67;6.10;;;9.50;99.90;;;;;;5090021;28;20422;-72
2021/03/11 04:57:01;;;;;;;7.80;7.10;;;9.40;99.90;;;;;;5093917;28;20418;-72
2021/03/11 04:59:27;;;;;;;7.97;7.27;;;9.30;99.90;;;;;;5094375;28;20894;-72
2021/03/11 05:01:57;;;;;;;7.10;6.50;;;9.40;99.90;;;;;;5093770;28;20422;-72
2021/03/11 05:04:23;;;;;;;8.00;7.30;;;9.30;99.90;;;;;;5076623;28;20476;-72
2021/03/11 05:06:50;;;;;;;7.30;6.70;;;9.40;99.90;;;;;;5094065;28;20456;-72
2021/03/11 05:09:16;;;;;;;7.13;6.63;;;9.50;99.90;;;;;;5094556;28;20835;-72
2021/03/11 05:11:45;;;;;;;6.20;5.63;;;9.40;99.90;;;;;;5075577;28;20425;-73
2021/03/11 05:14:11;;;;;;;7.93;7.13;;;9.60;99.90;;;;;;5093724;28;20902;-72
2021/03/11 05:16:36;;;;;;;7.40;6.80;;;9.50;99.90;;;;;;5094180;28;20406;-72
2021/03/11 05:19:02;;;;;;;6.77;6.17;;;9.50;99.90;;;;;;5084992;28;20450;-72
2021/03/11 05:21:28;;;;;;;6.77;6.20;;;9.50;99.90;;;;;;5074121;28;20410;-72
2021/03/11 05:23:54;;;;;;;7.70;7.00;;;9.50;99.90;;;;;;5083256;28;20168;-72
2021/03/11 05:26:20;;;;;;;6.70;6.10;;;9.60;99.90;;;;;;5094239;28;20184;-72
2021/03/11 05:28:46;;;;;;;6.37;5.87;;;9.50;99.90;;;;;;5093366;28;20409;-72
2021/03/11 05:31:11;;;;;;;6.93;6.33;;;9.50;99.90;;;;;;5091870;28;20172;-72
2021/03/11 05:33:37;;;;;;;5.80;5.27;;;9.60;99.90;;;;;;5094043;28;20168;-72
2021/03/11 05:36:03;;;;;;;8.10;7.40;;;9.70;99.90;;;;;;5093333;28;20612;-72
2021/03/11 05:38:29;;;;;;;7.03;6.13;;;9.70;99.90;;;;;;5094453;28;20196;-72
2021/03/11 05:40:55;;;;;;;6.83;6.33;;;9.70;99.90;;;;;;5091997;28;20535;-72
2021/03/11 05:43:21;;;;;;;6.40;5.80;;;9.70;99.90;;;;;;5093705;28;20168;-72
2021/03/11 05:45:47;;;;;;;6.53;6.07;;;9.70;99.90;;;;;;5087350;28;20177;-72
2021/03/11 05:48:17;;;;;;;6.17;5.60;;;9.70;99.90;;;;;;5073358;28;20520;-72
2021/03/11 05:50:43;;;;;;;6.10;5.60;;;9.80;99.90;;;;;;5073414;28;20473;-73
2021/03/11 05:53:12;;;;;;;6.37;5.77;;;9.80;99.90;;;;;;5073461;28;20711;-72
2021/03/11 05:55:40;;;;;;;6.40;6.00;;;9.80;99.90;;;;;;5073330;28;20403;-72
2021/03/11 05:58:08;;;;;;;6.67;6.10;;;9.70;99.90;;;;;;5072982;28;20382;-72
2021/03/11 06:00:34;;;;;;;8.10;7.37;;;9.60;99.90;;;;;;5075243;28;20790;-72
2021/03/11 06:03:03;;;;;;;5.27;4.87;;;9.70;99.90;;;;;;5092745;28;20385;-72
2021/03/11 06:05:31;;;;;;;8.90;8.20;;;9.60;99.90;;;;;;5093563;28;20401;-72
2021/03/11 06:07:58;;;;;;;5.47;5.00;;;9.50;99.90;;;;;;5092300;28;20381;-73
2021/03/11 06:10:24;;;;;;;7.00;6.50;;;9.50;99.90;;;;;;5093681;28;20743;-72
2021/03/11 06:12:51;;;;;;;5.90;5.40;;;9.60;99.90;;;;;;5074286;28;20460;-72
2021/03/11 06:15:17;;;;;;;7.80;7.20;;;9.60;99.90;;;;;;5092608;28;20488;-72
2021/03/11 06:17:43;;;;;;;6.47;5.90;;;9.60;99.90;;;;;;5092094;28;20411;-72
2021/03/11 06:20:10;;;;;;;5.80;5.37;;;9.60;99.90;;;;;;5091535;28;20541;-72
2021/03/11 06:22:37;;;;;;;6.17;5.57;;;9.60;99.90;;;;;;5093118;28;20413;-72
2021/03/11 06:25:05;;;;;;;6.20;5.80;;;9.60;99.90;;;;;;5091954;28;20763;-72
2021/03/11 06:27:30;;;;;;;5.53;5.13;;;9.70;99.90;;;;;;5077918;28;20407;-72
2021/03/11 06:29:57;;;;;;;5.73;5.33;;;9.60;99.90;;;;;;5054276;28;20441;-73
2021/03/11 06:32:24;;;;;;;6.10;5.60;;;9.60;99.90;;;;;;5092860;28;20746;-72
2021/03/11 06:34:50;;;;;;;6.10;5.60;;;9.60;99.90;;;;;;5092246;28;20402;-72
2021/03/11 06:37:35;;;;;;;7.27;6.83;;;9.60;99.90;;;;;;5090461;28;20445;-72
2021/03/11 06:40:22;;;;;;;6.90;6.40;;;9.70;99.90;;;;;;5071845;28;20470;-72
2021/03/11 06:42:49;;;;;;;5.43;5.13;;;9.50;99.90;;;;;;5081975;28;20886;-72
2021/03/11 06:45:24;;;;;;;5.60;4.97;;;9.60;99.90;;;;;;5064404;28;21081;-73
2021/03/11 06:47:51;;;;;;;6.60;6.10;;;9.70;99.90;;;;;;5084542;28;20431;-72
2021/03/11 06:50:17;;;;;;;7.10;6.53;;;9.80;99.90;;;;;;5086086;28;20475;-73
2021/03/11 06:53:00;;;;;;;6.70;6.10;;;9.80;99.90;;;;;;5071318;28;20435;-72
2021/03/11 06:55:26;;;;;;;5.63;5.23;;;9.80;99.90;;;;;;5078426;28;20454;-72
2021/03/11 06:57:52;;;;;;;5.80;5.30;;;9.80;99.90;;;;;;5081162;28;20451;-73
2021/03/11 07:00:22;;;;;;;6.97;6.37;;;9.90;99.90;;;;;;5072418;28;20228;-72
2021/03/11 07:02:58;;;;;;;5.60;5.30;;;9.90;99.90;;;;;;5071494;28;20165;-72
2021/03/11 07:05:26;;;;;;;5.13;4.73;;;10.00;99.90;;;;;;5090692;28;20413;-72
2021/03/11 07:08:07;;;;;;;7.00;6.50;;;10.00;99.90;;;;;;5088741;28;20446;-72
2021/03/11 07:10:35;;;;;;;5.20;4.83;;;10.10;99.90;;;;;;5090737;28;20491;-72
2021/03/11 07:13:01;;;;;;;5.97;5.00;;;10.00;99.90;;;;;;5079716;28;20473;-73
2021/03/11 07:15:35;;;;;;;6.03;5.53;;;10.00;99.90;;;;;;5071981;28;20391;-75
2021/03/11 07:18:05;;;;;;;6.57;6.00;;;10.00;99.90;;;;;;5055892;28;20422;-71
2021/03/11 07:20:32;;;;;;;6.07;5.67;;;10.00;99.90;;;;;;5090555;28;20442;-71
2021/03/11 07:23:09;;;;;;;6.03;5.63;;;10.00;99.90;;;;;;5090853;28;20419;-71
2021/03/11 07:25:43;;;;;;;6.00;4.97;;;10.10;99.90;;;;;;5092331;28;20425;-71
2021/03/11 07:28:20;;;;;;;6.27;5.60;;;10.20;99.90;;;;;;5073306;28;20414;-71
2021/03/11 07:30:57;;;;;;;6.10;5.70;;;10.10;99.90;;;;;;5089319;28;20441;-71
2021/03/11 07:33:25;;;;;;;5.20;4.80;;;10.20;99.90;;;;;;5074236;28;20901;-71
2021/03/11 07:35:54;;;;;;;4.97;4.57;;;10.20;99.90;;;;;;5070848;28;20912;-71
2021/03/11 07:38:22;;;;;;;5.97;5.57;;;10.30;99.90;;;;;;5073085;28;20859;-71
2021/03/11 07:40:57;;;;;;;5.77;5.37;;;10.40;99.90;;;;;;5052625;28;20472;-71
2021/03/11 07:43:27;;;;;;;4.73;4.43;;;10.40;99.90;;;;;;5090653;28;20445;-71
2021/03/11 07:46:10;;;;;;;4.83;4.43;;;10.40;99.90;;;;;;5082471;28;20430;-72
2021/03/11 07:48:37;;;;;;;5.67;5.30;;;10.50;99.90;;;;;;5088080;28;20893;-72
2021/03/11 07:51:04;;;;;;;6.47;6.07;;;10.40;99.90;;;;;;5086562;28;20406;-71
2021/03/11 07:53:29;;;;;;;5.50;5.13;;;10.40;99.90;;;;;;5090200;28;20426;-71
2021/03/11 07:55:56;;;;;;;7.70;7.40;;;10.40;99.90;;;;;;5089040;28;20422;-71
2021/03/11 07:58:24;;;;;;;5.10;4.80;;;10.50;99.90;;;;;;5092165;28;20173;-71
2021/03/11 08:00:50;;;;;;;6.23;5.93;;;10.50;99.90;;;;;;5091054;28;20926;-71
2021/03/11 08:03:23;;;;;;;5.80;5.40;;;10.50;99.90;;;;;;5073670;28;20535;-71
2021/03/11 08:05:49;;;;;;;6.00;5.60;;;10.60;99.90;;;;;;5076088;28;20416;-71
2021/03/11 08:08:29;;;;;;;5.77;5.37;;;10.60;99.90;;;;;;5091728;28;20894;-71
2021/03/11 08:10:56;;;;;;;5.00;4.70;;;10.70;99.90;;;;;;5075944;28;20411;-71
2021/03/11 08:13:36;;;;;;;5.13;4.63;;;10.70;99.90;;;;;;5074534;28;20416;-71
2021/03/11 08:16:14;;;;;;;4.63;4.33;;;10.80;99.90;;;;;;5073165;28;20422;-72
2021/03/11 08:18:46;;;;;;;5.00;4.70;;;10.70;99.90;;;;;;5089828;28;20411;-71
2021/03/11 08:21:24;;;;;;;5.23;4.83;;;10.80;99.90;;;;;;5085767;28;20461;-71
2021/03/11 08:23:51;;;;;;;5.00;4.60;;;11.00;99.90;;;;;;5074349;28;20956;-71
2021/03/11 08:26:42;;;;;;;4.70;4.50;;;11.10;99.90;;;;;;5085382;28;20449;-71
2021/03/11 08:29:17;;;;;;;5.00;4.70;;;11.20;99.90;;;;;;5091277;28;20411;-71
2021/03/11 08:31:43;;;;;;;4.50;4.30;;;11.30;99.90;;;;;;5095090;28;20879;-71
2021/03/11 08:34:29;;;;;;;5.10;4.80;;;11.30;99.90;;;;;;5094736;28;20404;-71
2021/03/11 08:37:18;;;;;;;5.13;4.83;;;11.30;99.90;;;;;;5089604;28;20409;-71
2021/03/11 08:39:44;;;;;;;4.67;4.40;;;11.40;99.90;;;;;;5076006;28;20473;-71
2021/03/11 08:42:49;;;;;;;5.23;4.83;;;11.40;99.90;;;;;;5076392;28;20390;-71
2021/03/11 08:45:37;;;;;;;4.90;4.60;;;11.40;99.90;;;;;;5084840;28;20425;-71
2021/03/11 08:48:18;;;;;;;4.00;3.80;;;11.30;99.90;;;;;;5069766;28;20426;-72
2021/03/11 08:50:49;;;;;;;4.50;4.13;;;11.30;99.90;;;;;;5087022;28;20509;-71
2021/03/11 08:53:42;;;;;;;4.70;4.40;;;11.30;99.90;;;;;;5056521;28;20413;-71
2021/03/11 08:56:17;;;;;;;4.90;4.60;;;11.30;99.90;;;;;;5055646;28;20433;-71
2021/03/11 08:59:00;;;;;;;4.60;4.30;;;11.30;99.90;;;;;;5093733;28;20774;-71
2021/03/11 09:01:31;;;;;;;4.30;4.10;;;11.40;99.90;;;;;;5094796;28;20457;-74
2021/03/11 09:04:21;;;;;;;4.90;4.50;;;11.40;99.90;;;;;;5080375;28;20415;-71
2021/03/11 09:07:33;;;;;;;4.00;3.80;;;11.40;99.90;;;;;;5057414;28;20498;-71
2021/03/11 09:10:00;;;;;;;4.90;4.03;;;11.40;99.90;;;;;;5001089;28;20436;-71
2021/03/11 09:12:38;;;;;;;5.17;4.87;;;11.50;99.90;;;;;;5065359;28;20418;-71
2021/03/11 09:15:08;;;;;;;4.97;4.40;;;11.60;99.90;;;;;;5081839;28;20501;-71
2021/03/11 09:17:35;;;;;;;4.97;4.47;;;11.60;99.90;;;;;;5078600;28;20429;-71
2021/03/11 09:20:04;;;;;;;4.20;3.90;;;11.60;99.90;;;;;;5083636;28;20792;-72
2021/03/11 09:22:49;;;;;;;4.83;4.43;;;11.60;99.90;;;;;;5066758;28;20472;-73
2021/03/11 09:25:16;;;;;;;4.50;4.27;;;11.70;99.90;;;;;;5088801;28;20483;-71
2021/03/11 09:27:52;;;;;;;4.77;4.47;;;11.70;99.90;;;;;;5074306;28;20419;-72
2021/03/11 09:30:21;;;;;;;5.17;4.83;;;11.70;99.90;;;;;;5073850;28;20414;-71
2021/03/11 09:32:47;;;;;;;5.33;4.97;;;11.60;99.90;;;;;;5085208;28;20429;-72
2021/03/11 09:35:14;;;;;;;5.73;5.23;;;11.50;99.90;;;;;;5083870;28;20455;-72
2021/03/11 09:37:47;;;;;;;4.57;4.13;;;11.50;99.90;;;;;;5079166;28;20175;-71
2021/03/11 09:40:22;;;;;;;4.23;3.90;;;11.50;99.90;;;;;;5091737;28;20499;-71
2021/03/11 09:43:24;;;;;;;5.97;4.10;;;11.40;99.90;;;;;;5093299;28;20869;-73
2021/03/11 09:45:58;;;;;;;5.97;4.33;;;11.30;99.90;;;;;;5074220;28;20416;-72
2021/03/11 09:48:55;;;;;;;10.17;5.20;;;11.30;99.90;;;;;;5084821;28;20413;-71
2021/03/11 09:51:28;;;;;;;5.27;4.90;;;11.30;99.90;;;;;;5060481;28;20873;-72
2021/03/11 09:54:04;;;;;;;4.93;4.30;;;11.30;99.90;;;;;;5081341;28;20419;-73
2021/03/11 09:56:44;;;;;;;5.00;3.80;;;11.20;99.90;;;;;;5073303;28;20466;-71
2021/03/11 09:59:14;;;;;;;5.23;4.07;;;11.20;99.90;;;;;;5071826;28;20573;-71
2021/03/11 10:01:39;;;;;;;4.13;3.10;;;11.20;99.90;;;;;;5073321;28;20401;-71
2021/03/11 10:04:23;;;;;;;5.40;3.57;;;11.20;99.90;;;;;;5072794;28;20954;-71
2021/03/11 10:06:54;;;;;;;4.10;3.37;;;11.20;99.90;;;;;;5072639;28;20226;-71
2021/03/11 10:09:21;;;;;;;4.83;2.90;;;11.20;99.90;;;;;;5073076;28;20922;-72
2021/03/11 10:11:53;;;;;;;12.10;4.30;;;11.20;99.90;;;;;;5072418;28;20409;-71
2021/03/11 10:14:24;;;;;;;5.93;2.57;;;11.20;99.90;;;;;;5072729;28;20462;-71
2021/03/11 10:17:03;;;;;;;6.50;2.70;;;11.30;99.90;;;;;;5055381;28;20402;-71
2021/03/11 10:19:29;;;;;;;4.03;2.97;;;11.50;99.90;;;;;;5072760;28;20496;-71
2021/03/11 10:22:04;;;;;;;3.90;3.50;;;11.70;99.90;;;;;;5071899;28;20411;-71
2021/03/11 10:24:30;;;;;;;6.03;3.80;;;12.10;99.90;;;;;;5069836;28;20681;-71
2021/03/11 10:26:56;;;;;;;5.97;4.43;;;12.40;99.90;;;;;;5071045;28;20422;-71
2021/03/11 10:29:24;;;;;;;10.33;5.73;;;12.80;99.90;;;;;;5072136;28;20656;-71
2021/03/11 10:32:12;;;;;;;6.53;5.10;;;13.20;99.80;;;;;;5072332;28;20486;-71
2021/03/11 10:34:49;;;;;;;7.17;5.27;;;13.50;98.80;;;;;;5072764;28;20388;-71
2021/03/11 10:37:34;;;;;;;6.47;4.47;;;13.80;98.20;;;;;;5072226;28;20411;-71
2021/03/11 10:40:08;;;;;;;8.30;3.50;;;14.10;96.80;;;;;;5071497;28;20830;-71
2021/03/11 10:42:46;;;;;;;11.23;4.27;;;14.30;95.90;;;;;;5072641;28;20401;-71
2021/03/11 10:45:14;;;;;;;9.00;4.43;;;14.60;96.10;;;;;;5071827;28;20534;-71
2021/03/11 10:47:42;;;;;;;6.07;3.43;;;14.70;95.00;;;;;;5072167;28;20434;-71
2021/03/11 10:50:21;;;;;;;5.80;4.50;;;14.80;94.50;;;;;;5071668;28;20489;-71
2021/03/11 10:52:48;;;;;;;7.07;3.20;;;14.90;94.30;;;;;;5068834;28;20503;-71
2021/03/11 10:55:47;;;;;;;5.60;3.40;;;14.90;93.80;;;;;;5080577;28;20413;-71
2021/03/11 10:58:27;;;;;;;6.80;3.60;;;15.20;93.20;;;;;;5038585;28;20810;-71
2021/03/11 11:01:06;;;;;;;5.43;3.60;;;15.30;92.80;;;;;;5056380;28;20914;-71
2021/03/11 11:03:32;;;;;;;6.70;3.70;;;15.50;92.40;;;;;;5069213;28;20417;-71
2021/03/11 11:05:58;;;;;;;7.83;4.73;;;15.70;91.90;;;;;;5084754;28;20885;-71
2021/03/11 11:08:24;;;;;;;7.60;3.83;;;15.90;90.90;;;;;;5092628;28;20481;-71
2021/03/11 11:10:50;;;;;;;6.40;5.90;;;16.00;90.40;;;;;;5092245;28;20275;-71
2021/03/11 11:13:16;;;;;;;7.53;4.30;;;16.20;90.20;;;;;;5079858;28;20406;-71
2021/03/11 11:15:41;;;;;;;7.30;4.33;;;16.20;89.70;;;;;;5092186;28;20177;-71
2021/03/11 11:18:07;;;;;;;5.20;3.30;;;16.30;88.10;;;;;;5091551;28;20177;-71
2021/03/11 11:20:34;;;;;;;5.37;3.23;;;16.50;87.70;;;;;;5092406;28;20201;-71
2021/03/11 11:23:00;;;;;;;5.63;4.53;;;16.40;85.70;;;;;;5091309;28;20173;-71
2021/03/11 11:25:26;;;;;;;5.07;3.40;;;16.30;82.40;;;;;;5072994;28;20442;-71
2021/03/11 11:27:52;;;;;;;7.57;3.43;;;16.10;83.20;;;;;;5070910;28;20412;-71
2021/03/11 11:30:18;;;;;;;3.70;3.30;;;15.90;82.30;;;;;;5071198;28;20196;-71
2021/03/11 11:32:44;;;;;;;6.00;4.03;;;15.80;83.80;;;;;;5071954;28;20446;-71
2021/03/11 11:35:10;;;;;;;8.60;4.00;;;15.70;83.50;;;;;;5070879;28;20444;-71
2021/03/11 11:37:36;;;;;;;4.60;3.63;;;15.50;84.30;;;;;;5071872;28;20173;-71
2021/03/11 11:40:03;;;;;;;2.67;2.27;;;15.30;83.00;;;;;;5074341;28;21032;-71
2021/03/11 11:42:28;;;;;;;7.70;4.30;;;15.20;83.70;;;;;;5058253;28;20406;-71
2021/03/11 11:44:54;;;;;;;6.83;2.90;;;15.10;83.70;;;;;;5075275;28;20401;-72
2021/03/11 11:47:20;;;;;;;5.20;2.93;;;15.20;85.80;;;;;;5076000;28;20573;-71
2021/03/11 11:49:46;;;;;;;4.63;4.23;;;15.30;84.10;;;;;;5075870;28;20410;-71
2021/03/11 11:52:12;;;;;;;5.83;2.60;;;15.40;83.00;;;;;;5057148;28;20468;-71
2021/03/11 11:54:38;;;;;;;9.50;3.33;;;15.30;80.40;;;;;;5076753;28;20173;-71
2021/03/11 11:57:07;;;;;;;8.17;3.30;;;15.30;79.40;;;;;;5057215;28;20418;-71
2021/03/11 11:59:33;;;;;;;5.53;3.97;;;15.20;78.80;;;;;;5075175;28;20461;-71
2021/03/11 12:01:59;;;;;;;5.80;2.73;;;15.00;78.40;;;;;;5074299;28;20765;-71
2021/03/11 12:04:25;;;;;;;8.03;3.60;;;15.00;80.50;;;;;;5074828;28;20407;-71
2021/03/11 12:06:52;;;;;;;7.50;3.40;;;15.00;78.20;;;;;;5075584;28;20183;-71
2021/03/11 12:09:18;;;;;;;6.00;3.10;;;14.90;74.90;;;;;;5057027;28;20409;-70
2021/03/11 12:11:44;;;;;;;5.10;2.90;;;14.90;75.80;;;;;;5075749;28;20429;-70
2021/03/11 12:14:09;;;;;;;6.57;3.40;;;14.90;77.30;;;;;;5068583;28;20421;-71
2021/03/11 12:16:35;;;;;;;9.20;3.03;;;14.90;76.90;;;;;;5095341;28;20397;-71
2021/03/11 12:19:02;;;;;;;8.53;4.23;;;14.90;76.50;;;;;;5074248;28;20183;-71
2021/03/11 12:21:28;;;;;;;5.80;3.10;;;15.00;76.50;;;;;;5074969;28;20883;-71
2021/03/11 12:23:53;;;;;;;6.90;4.53;;;15.10;75.60;;;;;;5074980;28;20428;-74
2021/03/11 12:26:20;;;;;;;11.77;5.03;;;15.20;75.50;;;;;;5075869;28;20617;-72
2021/03/11 12:28:50;;;;;;;7.13;3.20;;;15.20;75.00;;;;;;5074459;28;20169;-72
2021/03/11 12:31:16;;;;;;;6.67;4.37;;;15.20;76.00;;;;;;5074578;28;21084;-70
2021/03/11 12:33:42;;;;;;;9.90;3.83;;;15.10;75.10;;;;;;5074987;28;20447;-70
2021/03/11 12:36:09;;;;;;;11.90;3.90;;;15.10;76.10;;;;;;5055586;28;20761;-70
2021/03/11 12:38:36;;;;;;;6.60;3.47;;;15.00;76.30;;;;;;5074856;28;20418;-70
2021/03/11 12:41:02;;;;;;;7.13;3.40;;;15.00;76.50;;;;;;5073539;28;20807;-70
2021/03/11 12:43:28;;;;;;;6.27;3.60;;;15.00;77.30;;;;;;5075151;28;20415;-71
2021/03/11 12:45:54;;;;;;;6.63;3.13;;;15.00;76.90;;;;;;5074810;28;20734;-70
2021/03/11 12:48:20;;;;;;;5.00;3.27;;;14.90;76.20;;;;;;5073857;28;20172;-70
2021/03/11 12:50:49;;;;;;;7.30;3.47;;;14.70;75.60;;;;;;5074028;28;20748;-70
2021/03/11 12:53:18;;;;;;;6.90;3.23;;;14.70;74.70;;;;;;5073795;28;21235;-71
2021/03/11 12:55:44;;;;;;;9.83;3.03;;;14.80;75.00;;;;;;5064475;28;20430;-72
2021/03/11 12:58:10;;;;;;;9.97;4.70;;;14.80;75.20;;;;;;5093176;28;20408;-71